createdAt,value
2022-12-19T00:00:50.035Z,0.71
2022-12-19T00:03:17.663Z,0.69
2022-12-19T00:05:45.329Z,0.70
2022-12-19T00:08:17.455Z,0.73
2022-12-19T00:10:46.506Z,0.76
2022-12-19T00:13:16.909Z,0.85
2022-12-19T00:15:45.782Z,0.75
2022-12-19T00:18:13.269Z,0.75
2022-12-19T00:20:40.694Z,0.84
2022-12-19T00:23:08.630Z,0.92
2022-12-19T00:25:36.623Z,0.83
2022-12-19T00:28:07.512Z,0.85
2022-12-19T00:30:35.536Z,0.89
2022-12-19T00:33:05.121Z,0.94
2022-12-19T00:35:32.906Z,1.03
2022-12-19T00:38:00.851Z,0.94
2022-12-19T00:40:29.187Z,1.00
2022-12-19T00:42:56.739Z,0.98
2022-12-19T00:45:25.693Z,1.01
2022-12-19T00:47:55.101Z,1.03
2022-12-19T00:50:24.683Z,1.06
2022-12-19T00:52:52.135Z,1.08
2022-12-19T00:55:19.781Z,1.06
2022-12-19T00:57:47.693Z,1.02
2022-12-19T01:00:16.066Z,1.12
2022-12-19T01:02:44.613Z,1.11
2022-12-19T01:05:12.335Z,1.12
2022-12-19T01:07:43.755Z,1.16
2022-12-19T01:10:12.642Z,1.11
2022-12-19T01:12:46.511Z,1.14
2022-12-19T01:15:14.381Z,1.14
2022-12-19T01:17:44.977Z,1.21
2022-12-19T01:20:13.527Z,1.31
2022-12-19T01:22:40.960Z,1.18
2022-12-19T01:25:10.527Z,1.19
2022-12-19T01:27:40.592Z,1.29
2022-12-19T01:30:10.526Z,1.28
2022-12-19T01:32:39.592Z,1.29
2022-12-19T01:35:08.402Z,1.19
2022-12-19T01:37:42.657Z,1.17
2022-12-19T01:40:13.515Z,1.28
2022-12-19T01:42:41.863Z,1.19
2022-12-19T01:45:33.177Z,1.25
2022-12-19T01:48:16.630Z,1.25
2022-12-19T01:51:01.397Z,1.34
2022-12-19T01:53:32.564Z,1.38
2022-12-19T01:56:09.131Z,1.40
2022-12-19T01:58:38.523Z,1.39
2022-12-19T02:01:06.254Z,1.33
2022-12-19T02:03:35.593Z,1.37
2022-12-19T02:06:03.441Z,1.44
2022-12-19T02:09:00.481Z,1.41
2022-12-19T02:11:31.154Z,1.50
2022-12-19T02:14:01.483Z,1.54
2022-12-19T02:16:35.634Z,1.52
2022-12-19T02:19:14.089Z,1.50
2022-12-19T02:21:46.271Z,1.56
2022-12-19T02:24:26.402Z,1.61
2022-12-19T02:27:21.626Z,1.59
2022-12-19T02:30:04.506Z,1.63
2022-12-19T02:32:43.208Z,1.66
2022-12-19T02:35:15.520Z,1.67
2022-12-19T02:37:46.622Z,1.65
2022-12-19T02:40:18.124Z,1.76
2022-12-19T02:42:54.526Z,1.75
2022-12-19T02:45:28.824Z,1.79
2022-12-19T02:48:04.482Z,1.71
2022-12-19T02:50:40.752Z,1.81
2022-12-19T02:53:14.491Z,1.87
2022-12-19T02:55:45.123Z,1.93
2022-12-19T02:58:20.501Z,1.86
2022-12-19T03:00:55.581Z,1.96
2022-12-19T03:03:28.548Z,1.92
2022-12-19T03:06:03.429Z,1.95
2022-12-19T03:08:36.172Z,2.00
2022-12-19T03:11:06.424Z,2.04
2022-12-19T03:13:36.235Z,2.12
2022-12-19T03:16:04.860Z,2.11
2022-12-19T03:18:34.333Z,2.10
2022-12-19T03:21:05.660Z,2.10
2022-12-19T03:23:33.604Z,2.09
2022-12-19T03:26:04.537Z,2.12
2022-12-19T03:28:35.562Z,2.12
2022-12-19T03:31:30.151Z,2.19
2022-12-19T03:34:01.552Z,2.19
2022-12-19T03:36:31.468Z,2.28
2022-12-19T03:39:03.647Z,2.21
2022-12-19T03:41:50.346Z,2.22
2022-12-19T03:44:18.505Z,2.21
2022-12-19T03:46:49.611Z,2.25
2022-12-19T03:49:19.320Z,2.20
2022-12-19T03:51:48.999Z,2.16
2022-12-19T03:54:17.960Z,2.16
2022-12-19T03:56:50.262Z,2.19
2022-12-19T03:59:20.580Z,2.20
2022-12-19T04:01:49.710Z,2.19
2022-12-19T04:04:19.378Z,2.23
2022-12-19T04:06:47.935Z,2.29
2022-12-19T04:09:22.308Z,2.27
2022-12-19T04:11:53.133Z,2.30
2022-12-19T04:14:24.337Z,2.32
2022-12-19T04:16:56.706Z,2.34
2022-12-19T04:19:30.977Z,2.33
2022-12-19T04:22:02.817Z,2.31
2022-12-19T04:24:34.364Z,2.33
2022-12-19T04:27:02.920Z,2.52
2022-12-19T04:29:32.618Z,2.46
2022-12-19T04:32:01.527Z,2.50
2022-12-19T04:34:30.354Z,2.43
2022-12-19T04:36:58.036Z,2.47
2022-12-19T04:39:25.957Z,2.49
2022-12-19T04:41:56.514Z,2.51
2022-12-19T04:44:50.624Z,2.56
2022-12-19T04:47:19.034Z,2.56
2022-12-19T04:49:49.212Z,2.57
2022-12-19T04:52:16.818Z,2.66
2022-12-19T04:54:44.894Z,2.65
2022-12-19T04:57:12.364Z,2.68
2022-12-19T04:59:39.852Z,2.73
2022-12-19T05:02:07.329Z,2.70
2022-12-19T05:04:34.911Z,2.78
2022-12-19T05:07:03.768Z,2.76
2022-12-19T05:09:31.192Z,2.77
2022-12-19T05:11:58.716Z,2.84
2022-12-19T05:14:26.913Z,2.93
2022-12-19T05:16:59.003Z,2.92
2022-12-19T05:19:29.025Z,2.98
2022-12-19T05:21:56.475Z,2.98
2022-12-19T05:24:25.343Z,2.96
2022-12-19T05:26:53.636Z,3.03
2022-12-19T05:29:21.080Z,3.04
2022-12-19T05:31:48.605Z,3.10
2022-12-19T05:34:16.901Z,3.13
2022-12-19T05:36:44.393Z,3.11
2022-12-19T05:39:12.064Z,3.19
2022-12-19T05:41:45.201Z,3.18
2022-12-19T05:44:14.992Z,3.20
2022-12-19T05:46:42.505Z,3.15
2022-12-19T05:49:11.620Z,3.20
2022-12-19T05:51:41.535Z,3.20
2022-12-19T05:54:09.609Z,3.20
2022-12-19T05:56:37.076Z,3.23
2022-12-19T05:59:06.426Z,3.21
2022-12-19T06:01:34.800Z,3.22
2022-12-19T06:04:02.521Z,3.29
2022-12-19T06:06:29.985Z,3.28
2022-12-19T06:08:58.218Z,3.31
2022-12-19T06:11:26.027Z,3.36
2022-12-19T06:13:53.966Z,3.39
2022-12-19T06:16:26.641Z,3.39
2022-12-19T06:18:54.524Z,3.43
2022-12-19T06:21:23.685Z,3.46
2022-12-19T06:23:51.495Z,3.48
2022-12-19T06:26:20.445Z,3.55
2022-12-19T06:28:48.625Z,3.61
2022-12-19T06:31:18.218Z,3.72
2022-12-19T06:33:47.147Z,3.79
2022-12-19T06:36:16.860Z,3.81
2022-12-19T06:38:44.309Z,3.83
2022-12-19T06:41:25.760Z,3.86
2022-12-19T06:43:55.526Z,3.91
2022-12-19T06:46:49.505Z,3.87
2022-12-19T06:49:19.096Z,3.90
2022-12-19T06:54:41.189Z,4.12
2022-12-19T06:57:09.099Z,4.09
2022-12-19T06:59:36.908Z,4.13
2022-12-19T07:02:07.705Z,4.19
2022-12-19T07:04:40.455Z,4.16
2022-12-19T07:07:10.594Z,4.26
2022-12-19T07:09:38.509Z,4.31
2022-12-19T07:12:07.387Z,4.19
2022-12-19T07:14:36.538Z,4.24
2022-12-19T07:17:04.544Z,4.30
2022-12-19T07:19:35.045Z,4.31
2022-12-19T07:22:08.516Z,4.32
2022-12-19T07:24:37.490Z,4.29
2022-12-19T07:27:06.105Z,4.33
2022-12-19T07:29:33.619Z,4.34
2022-12-19T07:32:01.843Z,4.34
2022-12-19T07:34:29.999Z,4.37
2022-12-19T07:36:57.520Z,4.44
2022-12-19T07:39:27.536Z,4.37
2022-12-19T07:42:21.328Z,4.42
2022-12-19T07:44:49.515Z,4.39
2022-12-19T07:47:17.303Z,4.49
2022-12-19T07:49:44.830Z,4.49
2022-12-19T07:52:12.287Z,4.46
2022-12-19T07:54:41.318Z,4.51
2022-12-19T07:57:34.557Z,4.49
2022-12-19T08:00:04.750Z,4.53
2022-12-19T08:02:40.652Z,4.49
2022-12-19T08:05:09.605Z,4.50
2022-12-19T08:07:37.603Z,4.52
2022-12-19T08:10:07.744Z,4.56
2022-12-19T08:12:35.257Z,4.61
2022-12-19T08:15:03.078Z,4.59
2022-12-19T08:17:31.835Z,4.61
2022-12-19T08:20:00.731Z,4.63
2022-12-19T08:22:29.999Z,4.73
2022-12-19T08:24:57.503Z,4.69
2022-12-19T08:27:27.776Z,4.71
2022-12-19T08:29:55.267Z,4.74
2022-12-19T08:32:22.710Z,4.73
2022-12-19T08:34:50.462Z,4.73
2022-12-19T08:37:18.276Z,4.77
2022-12-19T08:39:45.761Z,4.78
2022-12-19T08:42:14.642Z,4.80
2022-12-19T08:44:44.384Z,4.82
2022-12-19T08:47:12.109Z,4.87
2022-12-19T08:49:39.777Z,4.89
2022-12-19T08:52:07.278Z,4.90
2022-12-19T08:54:34.897Z,4.94
2022-12-19T08:57:02.767Z,4.96
2022-12-19T08:59:32.244Z,4.96
2022-12-19T09:02:02.769Z,5.01
2022-12-19T09:05:53.254Z,5.05
2022-12-19T09:07:23.511Z,5.08
2022-12-19T09:09:50.955Z,5.12
2022-12-19T09:12:19.526Z,5.15
2022-12-19T09:14:47.117Z,5.16
2022-12-19T09:17:16.723Z,5.26
2022-12-19T09:19:45.164Z,5.22
2022-12-19T09:22:16.101Z,5.24
2022-12-19T09:24:44.028Z,5.26
2022-12-19T09:27:11.883Z,5.29
2022-12-19T09:29:40.500Z,5.37
2022-12-19T09:32:07.945Z,5.44
2022-12-19T09:34:38.980Z,5.47
2022-12-19T09:37:08.518Z,5.56
2022-12-19T09:39:36.449Z,5.59
2022-12-19T09:42:16.128Z,5.59
2022-12-19T09:44:52.101Z,5.65
2022-12-19T09:47:20.762Z,5.76
2022-12-19T09:49:53.999Z,5.80
2022-12-19T09:52:24.725Z,5.75
2022-12-19T09:54:57.541Z,5.78
2022-12-19T09:57:38.278Z,5.81
2022-12-19T10:00:07.429Z,5.83
2022-12-19T10:02:40.101Z,5.88
2022-12-19T10:05:42.853Z,5.95
2022-12-19T10:08:10.522Z,5.97
2022-12-19T10:12:38.588Z,5.99
2022-12-19T10:13:38.522Z,6.05
2022-12-19T10:16:11.740Z,6.09
2022-12-19T10:18:48.546Z,6.20
2022-12-19T10:21:59.138Z,6.19
2022-12-19T10:24:24.163Z,6.19
2022-12-19T10:26:52.792Z,6.22
2022-12-19T10:29:30.957Z,6.25
2022-12-19T10:32:01.226Z,6.31
2022-12-19T10:34:31.189Z,6.34
2022-12-19T10:37:26.717Z,6.35
2022-12-19T10:39:55.976Z,6.42
2022-12-19T10:42:27.943Z,6.47
2022-12-19T10:44:56.522Z,6.49
2022-12-19T10:47:24.102Z,6.51
2022-12-19T10:49:51.836Z,6.52
2022-12-19T10:52:44.286Z,6.61
2022-12-19T10:55:22.312Z,6.62
2022-12-19T10:57:49.771Z,6.65
2022-12-19T11:00:18.945Z,6.68
2022-12-19T11:02:47.351Z,6.76
2022-12-19T11:05:23.805Z,6.81
2022-12-19T11:08:01.523Z,6.84
2022-12-19T11:11:44.955Z,6.86
2022-12-19T11:19:23.955Z,6.89
2022-12-19T11:20:42.835Z,6.94
2022-12-19T11:24:54.976Z,7.01
2022-12-19T11:29:37.680Z,7.07
2022-12-19T11:30:25.963Z,7.09
2022-12-19T11:30:44.126Z,7.07
2022-12-19T11:33:14.286Z,7.14
2022-12-19T11:35:49.790Z,7.22
2022-12-19T11:38:19.358Z,7.28
2022-12-19T11:40:50.069Z,7.33
2022-12-19T11:46:19.475Z,7.38
2022-12-19T11:48:53.334Z,7.42
2022-12-19T11:51:24.410Z,7.48
2022-12-19T11:53:57.741Z,7.51
2022-12-19T11:56:27.939Z,7.52
2022-12-19T11:58:57.397Z,7.60
2022-12-19T12:01:33.914Z,7.56
2022-12-19T12:04:09.583Z,7.59
2022-12-19T12:06:43.396Z,7.61
2022-12-19T12:11:56.860Z,7.62
2022-12-19T12:17:28.977Z,7.62
2022-12-19T12:31:08.619Z,7.68
2022-12-19T12:31:10.658Z,7.75
2022-12-19T12:31:22.382Z,7.72
2022-12-19T12:31:27.600Z,7.64
2022-12-19T12:31:42.013Z,7.70
2022-12-19T12:35:08.268Z,7.74
2022-12-19T12:35:55.108Z,7.76
2022-12-19T12:38:37.737Z,7.85
2022-12-19T12:41:10.896Z,7.78
2022-12-19T12:43:47.684Z,7.79
2022-12-19T12:46:20.537Z,7.78
2022-12-19T12:48:55.501Z,7.84
2022-12-19T12:51:25.590Z,7.79
2022-12-19T12:53:56.858Z,7.81
2022-12-19T12:56:24.963Z,7.80
2022-12-19T12:59:12.552Z,7.79
2022-12-19T13:01:42.215Z,7.80
2022-12-19T13:04:20.678Z,7.84
2022-12-19T13:07:23.078Z,7.85
2022-12-19T13:09:54.512Z,7.80
2022-12-19T13:12:42.640Z,7.82
2022-12-19T13:15:19.985Z,7.81
2022-12-19T13:18:10.597Z,7.81
2022-12-19T13:20:44.540Z,7.87
2022-12-19T13:23:23.626Z,7.85
2022-12-19T13:25:52.880Z,7.84
2022-12-19T13:28:38.179Z,7.85
2022-12-19T13:31:20.470Z,7.90
2022-12-19T13:34:18.123Z,7.82
2022-12-19T13:39:52.264Z,7.82
2022-12-19T13:40:01.457Z,7.84
2022-12-19T13:42:48.959Z,7.81
2022-12-19T13:45:23.658Z,7.83
2022-12-19T13:47:54.108Z,7.80
2022-12-19T13:50:25.362Z,7.80
2022-12-19T13:52:54.352Z,7.88
2022-12-19T13:55:21.917Z,7.82
2022-12-19T13:57:50.185Z,7.77
2022-12-19T14:00:19.680Z,7.81
2022-12-19T14:02:50.305Z,7.73
2022-12-19T14:05:44.417Z,7.71
2022-12-19T14:08:16.932Z,7.73
2022-12-19T14:11:34.380Z,7.70
2022-12-19T14:14:01.983Z,7.70
2022-12-19T14:16:43.594Z,7.76
2022-12-19T14:19:22.533Z,7.76
2022-12-19T14:22:05.555Z,7.80
2022-12-19T14:24:40.514Z,7.71
2022-12-19T14:28:17.071Z,7.75
2022-12-19T14:30:27.865Z,7.71
2022-12-19T14:33:40.356Z,7.75
2022-12-19T14:36:06.039Z,7.69
2022-12-19T14:39:24.764Z,7.64
2022-12-19T14:42:02.904Z,7.67
2022-12-19T14:52:25.274Z,7.61
2022-12-19T14:53:17.517Z,7.69
2022-12-19T14:54:40.478Z,7.60
2022-12-19T14:54:47.650Z,7.58
2022-12-19T14:58:57.529Z,7.44
2022-12-19T15:01:26.934Z,7.43
2022-12-19T15:04:52.641Z,7.43
2022-12-19T15:07:06.812Z,7.41
2022-12-19T15:11:00.376Z,7.42
2022-12-19T15:14:50.871Z,7.44
2022-12-19T15:15:40.914Z,7.39
2022-12-19T15:18:19.062Z,7.40
2022-12-19T15:20:48.606Z,7.38
2022-12-19T15:23:21.689Z,7.37
2022-12-19T15:26:07.388Z,7.36
2022-12-19T15:28:38.846Z,7.42
2022-12-19T15:31:11.585Z,7.53
2022-12-19T15:33:53.904Z,7.50
2022-12-19T15:36:27.031Z,7.50
2022-12-19T15:38:54.466Z,7.54
2022-12-19T15:41:23.537Z,7.50
2022-12-19T15:44:07.752Z,7.53
2022-12-19T15:46:41.347Z,7.54
2022-12-19T15:49:15.277Z,7.60
2022-12-19T15:51:42.921Z,7.68
2022-12-19T15:56:58.550Z,7.76
2022-12-19T15:59:34.814Z,7.81
2022-12-19T16:02:14.432Z,7.74
2022-12-19T16:04:42.801Z,7.70
2022-12-19T16:07:14.592Z,7.71
2022-12-19T16:09:42.544Z,7.74
2022-12-19T16:12:12.747Z,7.72
2022-12-19T16:14:40.272Z,7.68
2022-12-19T16:17:11.578Z,7.69
2022-12-19T16:19:42.618Z,7.65
2022-12-19T16:22:15.306Z,7.68
2022-12-19T16:24:42.799Z,7.63
2022-12-19T16:27:17.539Z,7.63
2022-12-19T16:29:45.977Z,7.66
2022-12-19T16:32:14.116Z,7.69
2022-12-19T16:34:43.686Z,7.66
2022-12-19T16:37:11.816Z,7.63
2022-12-19T16:39:39.342Z,7.64
2022-12-19T16:42:13.407Z,7.69
2022-12-19T16:44:40.862Z,7.68
2022-12-19T16:47:12.930Z,7.73
2022-12-19T16:49:40.613Z,7.70
2022-12-19T16:52:09.390Z,7.72
2022-12-19T16:54:36.924Z,7.70
2022-12-19T16:57:06.581Z,7.69
2022-12-19T16:59:35.107Z,7.70
2022-12-19T17:02:03.352Z,7.73
2022-12-19T17:04:30.845Z,7.75
2022-12-19T17:06:59.514Z,7.82
2022-12-19T17:09:28.317Z,7.78
2022-12-19T17:11:57.878Z,7.79
2022-12-19T17:14:27.533Z,7.78
2022-12-19T17:16:55.621Z,7.79
2022-12-19T17:19:24.557Z,7.74
2022-12-19T17:21:52.997Z,7.78
2022-12-19T17:24:21.526Z,7.82
2022-12-19T17:26:50.411Z,7.75
2022-12-19T17:29:18.773Z,7.71
2022-12-19T17:31:46.211Z,7.69
2022-12-19T17:34:17.282Z,7.68
2022-12-19T17:36:45.705Z,7.71
2022-12-19T17:39:18.597Z,7.69
2022-12-19T17:41:46.108Z,7.65
2022-12-19T17:44:14.924Z,7.65
2022-12-19T17:46:43.245Z,7.67
2022-12-19T17:49:15.525Z,7.74
2022-12-19T17:51:45.518Z,7.67
2022-12-19T17:54:14.556Z,7.63
2022-12-19T17:56:42.044Z,7.63
2022-12-19T17:59:10.564Z,7.62
2022-12-19T18:01:41.533Z,7.63
2022-12-19T18:04:14.352Z,7.59
2022-12-19T18:06:42.522Z,7.57
2022-12-19T18:09:17.783Z,7.59
2022-12-19T18:11:45.569Z,7.59
2022-12-19T18:14:13.119Z,7.58
2022-12-19T18:16:42.326Z,7.57
2022-12-19T18:19:16.418Z,7.58
2022-12-19T18:21:43.946Z,7.60
2022-12-19T18:24:12.187Z,7.68
2022-12-19T18:26:39.638Z,7.61
2022-12-19T18:29:07.191Z,7.59
2022-12-19T18:31:36.108Z,7.60
2022-12-19T18:34:08.016Z,7.63
2022-12-19T18:36:40.824Z,7.64
2022-12-19T18:39:18.796Z,7.62
2022-12-19T18:41:46.260Z,7.68
2022-12-19T18:44:13.687Z,7.68
2022-12-19T18:46:41.275Z,7.70
2022-12-19T18:49:13.030Z,7.69
2022-12-19T18:51:40.639Z,7.69
2022-12-19T18:54:12.740Z,7.72
2022-12-19T18:56:40.270Z,7.75
2022-12-19T18:59:07.754Z,7.76
2022-12-19T19:01:35.683Z,7.75
2022-12-19T19:04:03.488Z,7.72
2022-12-19T19:06:37.936Z,7.71
2022-12-19T19:09:07.550Z,7.66
2022-12-19T19:11:53.765Z,7.65
2022-12-19T19:14:21.489Z,7.67
2022-12-19T19:16:49.006Z,7.69
2022-12-19T19:19:18.272Z,7.64
2022-12-19T19:21:47.527Z,7.64
2022-12-19T19:24:16.870Z,7.68
2022-12-19T19:26:44.517Z,7.74
2022-12-19T19:29:13.419Z,7.69
2022-12-19T19:31:43.653Z,7.69
2022-12-19T19:34:14.476Z,7.76
2022-12-19T19:36:44.553Z,7.78
2022-12-19T19:39:14.117Z,7.75
2022-12-19T19:41:42.775Z,7.80
2022-12-19T19:44:11.837Z,7.82
2022-12-19T19:46:40.694Z,7.82
2022-12-19T19:49:08.615Z,7.86
2022-12-19T19:51:37.224Z,7.86
2022-12-19T19:54:04.921Z,7.86
2022-12-19T19:56:35.384Z,7.88
2022-12-19T19:59:03.771Z,7.91
2022-12-19T20:01:32.164Z,7.95
2022-12-19T20:03:59.801Z,7.95
2022-12-19T20:06:27.341Z,8.05
2022-12-19T20:08:54.905Z,8.06
2022-12-19T20:11:22.946Z,8.09
2022-12-19T20:13:51.929Z,8.11
2022-12-19T20:16:19.805Z,8.13
2022-12-19T20:18:48.828Z,8.12
2022-12-19T20:21:16.507Z,8.13
2022-12-19T20:23:44.699Z,8.18
2022-12-19T20:26:13.135Z,8.22
2022-12-19T20:28:47.845Z,8.24
2022-12-19T20:31:18.365Z,8.27
2022-12-19T20:33:46.167Z,8.28
2022-12-19T20:36:14.178Z,8.35
2022-12-19T20:38:42.116Z,8.35
2022-12-19T20:41:09.598Z,8.44
2022-12-19T20:43:38.353Z,8.44
2022-12-19T20:46:06.953Z,8.45
2022-12-19T20:48:35.894Z,8.43
2022-12-19T20:51:06.017Z,8.45
2022-12-19T20:53:34.259Z,8.52
2022-12-19T20:56:02.588Z,8.52
2022-12-19T20:58:31.186Z,8.56
2022-12-19T21:01:03.295Z,8.55
2022-12-19T21:03:30.965Z,8.52
2022-12-19T21:06:00.134Z,8.48
2022-12-19T21:08:28.232Z,8.48
2022-12-19T21:10:55.739Z,8.53
2022-12-19T21:13:24.425Z,8.47
2022-12-19T21:15:55.534Z,8.48
2022-12-19T21:18:23.110Z,8.48
2022-12-19T21:20:53.339Z,8.48
2022-12-19T21:23:23.672Z,8.53
2022-12-19T21:25:51.107Z,8.52
2022-12-19T21:28:18.982Z,8.55
2022-12-19T21:30:46.400Z,8.58
2022-12-19T21:33:13.919Z,8.61
2022-12-19T21:35:42.920Z,8.61
2022-12-19T21:38:11.667Z,8.61
2022-12-19T21:40:41.550Z,8.63
2022-12-19T21:43:11.957Z,8.63
2022-12-19T21:45:40.537Z,8.62
2022-12-19T21:48:08.121Z,8.64
2022-12-19T21:50:37.660Z,8.67
2022-12-19T21:53:05.117Z,8.61
2022-12-19T21:55:32.675Z,8.59
2022-12-19T21:58:01.959Z,8.58
2022-12-19T22:00:29.486Z,8.59
2022-12-19T22:03:14.805Z,8.60
2022-12-19T22:05:43.009Z,8.58
2022-12-19T22:08:11.717Z,8.66
2022-12-19T22:10:39.457Z,8.65
2022-12-19T22:13:08.422Z,8.68
2022-12-19T22:15:36.472Z,8.71
2022-12-19T22:18:04.192Z,8.70
2022-12-19T22:20:33.668Z,8.73
2022-12-19T22:23:01.113Z,8.73
2022-12-19T22:25:29.002Z,8.80
2022-12-19T22:27:56.541Z,8.76
2022-12-19T22:30:25.392Z,8.76
2022-12-19T22:32:52.938Z,8.78
2022-12-19T22:35:20.939Z,8.80
2022-12-19T22:37:48.587Z,8.81
2022-12-19T22:40:16.296Z,8.83
2022-12-19T22:42:44.812Z,8.86
2022-12-19T22:45:12.405Z,8.89
2022-12-19T22:47:42.934Z,8.90
2022-12-19T22:50:11.384Z,8.91
2022-12-19T22:52:40.649Z,8.92
2022-12-19T22:55:08.409Z,8.91
2022-12-19T22:57:37.533Z,8.90
2022-12-19T23:00:06.543Z,8.91
2022-12-19T23:02:36.171Z,8.92
2022-12-19T23:05:05.592Z,8.92
2022-12-19T23:07:35.830Z,8.90
2022-12-19T23:10:03.777Z,8.93
2022-12-19T23:12:35.931Z,8.91
2022-12-19T23:15:04.309Z,8.89
2022-12-19T23:17:31.810Z,8.88
2022-12-19T23:19:59.260Z,8.95
2022-12-19T23:22:28.229Z,8.92
2022-12-19T23:24:55.692Z,8.89
2022-12-19T23:27:23.172Z,8.86
2022-12-19T23:29:50.665Z,8.86
2022-12-19T23:32:18.237Z,8.88
2022-12-19T23:34:45.999Z,8.93
2022-12-19T23:37:13.516Z,8.91
2022-12-19T23:39:42.521Z,8.96
2022-12-19T23:42:10.038Z,9.00
2022-12-19T23:44:37.669Z,8.98
2022-12-19T23:47:05.180Z,8.99
2022-12-19T23:49:33.622Z,9.01
2022-12-19T23:52:01.073Z,9.01
2022-12-19T23:54:29.485Z,9.02
2022-12-19T23:56:58.270Z,9.03
2022-12-19T23:59:29.564Z,9.04
